createdAt,value
2018-10-06T00:01:24.449Z,90.10
2018-10-06T00:03:52.585Z,90.10
2018-10-06T00:06:20.702Z,90.10
2018-10-06T00:08:48.839Z,90.20
2018-10-06T00:11:17.274Z,90.30
2018-10-06T00:13:45.410Z,90.40
2018-10-06T00:16:13.598Z,90.60
2018-10-06T00:18:41.786Z,90.50
2018-10-06T00:21:09.906Z,90.50
2018-10-06T00:23:38.042Z,90.60
2018-10-06T00:26:06.605Z,90.50
2018-10-06T00:28:34.729Z,90.60
2018-10-06T00:31:02.951Z,90.50
2018-10-06T00:33:31.143Z,90.70
2018-10-06T00:35:59.285Z,90.80
2018-10-06T00:38:27.418Z,90.70
2018-10-06T00:40:55.558Z,90.90
2018-10-06T00:43:23.681Z,90.90
2018-10-06T00:45:51.821Z,90.80
2018-10-06T00:48:20.000Z,91.00
2018-10-06T00:50:48.121Z,91.10
2018-10-06T00:53:16.293Z,91.10
2018-10-06T00:55:44.416Z,91.20
2018-10-06T00:58:12.533Z,91.20
2018-10-06T01:00:40.669Z,91.30
2018-10-06T01:03:08.797Z,91.40
2018-10-06T01:05:36.931Z,91.40
2018-10-06T01:08:05.058Z,91.50
2018-10-06T01:10:33.198Z,91.50
2018-10-06T01:13:01.326Z,91.50
2018-10-06T01:15:29.475Z,91.40
2018-10-06T01:17:57.624Z,91.40
2018-10-06T01:20:25.774Z,91.40
2018-10-06T01:22:53.909Z,91.30
2018-10-06T01:25:22.031Z,91.40
2018-10-06T01:27:50.150Z,91.50
2018-10-06T01:30:18.274Z,91.40
2018-10-06T01:32:46.421Z,91.40
2018-10-06T01:35:14.545Z,91.40
2018-10-06T01:37:42.681Z,91.20
2018-10-06T01:40:10.817Z,91.30
2018-10-06T01:42:38.969Z,91.20
2018-10-06T01:45:07.529Z,91.60
2018-10-06T01:47:35.673Z,91.40
2018-10-06T01:50:03.983Z,91.40
2018-10-06T01:52:32.106Z,91.40
2018-10-06T01:55:00.246Z,91.50
2018-10-06T01:57:28.388Z,91.50
2018-10-06T01:59:56.538Z,91.40
2018-10-06T02:02:24.666Z,91.50
2018-10-06T02:04:52.803Z,91.50
2018-10-06T02:07:20.955Z,91.60
2018-10-06T02:09:49.087Z,91.60
2018-10-06T02:12:17.215Z,91.60
2018-10-06T02:14:45.371Z,91.60
2018-10-06T02:17:13.513Z,91.50
2018-10-06T02:19:41.645Z,91.50
2018-10-06T02:22:09.782Z,91.50
2018-10-06T02:24:37.945Z,91.60
2018-10-06T02:27:06.445Z,91.60
2018-10-06T02:29:34.588Z,91.70
2018-10-06T02:32:02.738Z,91.60
2018-10-06T02:34:30.926Z,91.60
2018-10-06T02:36:59.086Z,91.60
2018-10-06T02:39:27.187Z,91.60
2018-10-06T02:41:55.349Z,91.60
2018-10-06T02:44:23.483Z,91.60
2018-10-06T02:46:51.632Z,91.70
2018-10-06T02:49:19.773Z,91.60
2018-10-06T02:51:47.913Z,91.70
2018-10-06T02:54:16.091Z,91.70
2018-10-06T02:56:44.197Z,91.70
2018-10-06T02:59:12.337Z,91.70
2018-10-06T03:01:40.465Z,91.80
2018-10-06T03:04:09.008Z,91.80
2018-10-06T03:06:37.114Z,91.80
2018-10-06T03:09:06.866Z,91.90
2018-10-06T03:11:34.988Z,91.90
2018-10-06T03:14:03.135Z,91.90
2018-10-06T03:16:31.275Z,91.90
2018-10-06T03:18:59.409Z,91.90
2018-10-06T03:21:27.532Z,91.90
2018-10-06T03:23:55.657Z,91.90
2018-10-06T03:26:23.775Z,91.90
2018-10-06T03:31:27.389Z,92.10
2018-10-06T03:33:55.518Z,92.40
2018-10-06T03:36:23.674Z,92.20
2018-10-06T03:38:51.794Z,92.20
2018-10-06T03:41:19.926Z,92.30
2018-10-06T03:43:48.044Z,92.30
2018-10-06T03:46:16.173Z,92.30
2018-10-06T03:48:44.309Z,92.40
2018-10-06T03:51:12.429Z,92.30
2018-10-06T03:53:40.573Z,92.30
2018-10-06T03:56:08.725Z,92.40
2018-10-06T03:58:36.873Z,92.70
2018-10-06T04:01:05.030Z,92.40
2018-10-06T04:03:33.153Z,92.50
2018-10-06T04:06:01.315Z,92.50
2018-10-06T04:08:29.603Z,92.60
2018-10-06T04:10:57.762Z,92.60
2018-10-06T04:13:25.905Z,92.70
2018-10-06T04:15:54.057Z,92.60
2018-10-06T04:18:22.194Z,92.60
2018-10-06T04:20:50.341Z,92.70
2018-10-06T04:23:18.485Z,92.70
2018-10-06T04:25:46.619Z,92.60
2018-10-06T04:28:14.828Z,92.70
2018-10-06T04:30:42.918Z,92.70
2018-10-06T04:33:11.059Z,92.90
2018-10-06T04:35:39.193Z,92.60
2018-10-06T04:38:07.326Z,92.60
2018-10-06T04:40:35.557Z,92.60
2018-10-06T04:43:03.709Z,92.60
2018-10-06T04:45:31.834Z,92.60
2018-10-06T04:47:59.978Z,92.60
2018-10-06T04:50:28.097Z,92.60
2018-10-06T04:52:56.261Z,92.70
2018-10-06T04:55:24.377Z,92.70
2018-10-06T04:57:52.505Z,92.80
2018-10-06T05:00:20.643Z,92.80
2018-10-06T05:02:48.757Z,92.80
2018-10-06T05:05:16.929Z,92.80
2018-10-06T05:07:45.061Z,92.90
2018-10-06T05:10:13.258Z,92.70
2018-10-06T05:12:41.385Z,92.80
2018-10-06T05:15:09.525Z,93.00
2018-10-06T05:17:37.665Z,92.70
2018-10-06T05:20:06.033Z,92.90
2018-10-06T05:22:34.158Z,92.90
2018-10-06T05:25:02.474Z,92.90
2018-10-06T05:27:30.613Z,92.80
2018-10-06T05:29:58.749Z,92.90
2018-10-06T05:32:26.908Z,92.90
2018-10-06T05:34:55.082Z,92.80
2018-10-06T05:37:23.242Z,92.80
2018-10-06T05:39:51.394Z,92.80
2018-10-06T05:42:19.646Z,92.70
2018-10-06T05:44:47.757Z,92.70
2018-10-06T05:47:15.894Z,92.70
2018-10-06T05:49:44.022Z,92.80
2018-10-06T05:52:12.145Z,92.80
2018-10-06T05:54:40.278Z,92.80
2018-10-06T05:57:08.626Z,92.80
2018-10-06T05:59:36.782Z,92.80
2018-10-06T06:02:04.901Z,92.80
2018-10-06T06:04:33.079Z,92.90
2018-10-06T06:07:01.226Z,92.90
2018-10-06T06:09:29.371Z,92.90
2018-10-06T06:11:57.517Z,92.90
2018-10-06T06:14:25.738Z,92.80
2018-10-06T06:16:53.907Z,92.70
2018-10-06T06:19:22.017Z,92.70
2018-10-06T06:21:50.161Z,92.70
2018-10-06T06:24:18.305Z,92.90
2018-10-06T06:26:46.470Z,92.50
2018-10-06T06:29:14.654Z,92.40
2018-10-06T06:31:42.949Z,92.30
2018-10-06T06:34:11.150Z,92.20
2018-10-06T06:36:39.301Z,92.10
2018-10-06T06:39:08.490Z,92.00
2018-10-06T06:41:36.652Z,91.90
2018-10-06T06:44:04.816Z,91.70
2018-10-06T06:46:32.908Z,91.60
2018-10-06T06:49:01.048Z,91.40
2018-10-06T06:51:29.174Z,91.30
2018-10-06T06:53:57.305Z,91.20
2018-10-06T06:56:25.458Z,91.00
2018-10-06T06:58:53.602Z,90.90
2018-10-06T07:01:21.721Z,90.80
2018-10-06T07:03:49.854Z,90.50
2018-10-06T07:06:17.997Z,90.30
2018-10-06T07:08:46.112Z,90.10
2018-10-06T07:11:14.343Z,90.00
2018-10-06T07:13:42.473Z,90.00
2018-10-06T07:16:10.627Z,89.90
2018-10-06T07:18:39.073Z,89.30
2018-10-06T07:21:07.450Z,89.10
2018-10-06T07:23:35.671Z,88.80
2018-10-06T07:26:03.821Z,88.20
2018-10-06T07:28:31.981Z,87.90
2018-10-06T07:31:00.097Z,87.70
2018-10-06T07:33:28.222Z,87.70
2018-10-06T07:35:56.358Z,87.50
2018-10-06T07:38:24.521Z,87.30
2018-10-06T07:40:52.694Z,86.60
2018-10-06T07:43:20.851Z,86.20
2018-10-06T07:45:49.098Z,86.00
2018-10-06T07:48:17.245Z,85.30
2018-10-06T07:50:45.390Z,84.60
2018-10-06T07:53:13.602Z,84.10
2018-10-06T07:55:41.767Z,83.50
2018-10-06T07:58:09.897Z,83.20
2018-10-06T08:00:38.086Z,82.60
2018-10-06T08:03:06.488Z,82.60
2018-10-06T08:05:34.618Z,82.40
2018-10-06T08:08:03.041Z,81.90
2018-10-06T08:10:31.198Z,81.20
2018-10-06T08:12:59.338Z,80.90
2018-10-06T08:15:27.448Z,80.30
2018-10-06T08:17:55.602Z,79.70
2018-10-06T08:20:23.733Z,79.40
2018-10-06T08:22:51.877Z,78.50
2018-10-06T08:25:20.007Z,78.10
2018-10-06T08:27:48.141Z,77.30
2018-10-06T08:30:16.314Z,77.00
2018-10-06T08:32:44.478Z,76.70
2018-10-06T08:35:12.609Z,75.90
2018-10-06T08:37:40.742Z,75.10
2018-10-06T08:40:08.870Z,75.00
2018-10-06T08:42:37.091Z,74.40
2018-10-06T08:45:05.554Z,73.90
2018-10-06T08:47:33.736Z,73.40
2018-10-06T08:50:01.843Z,72.90
2018-10-06T08:52:30.089Z,72.10
2018-10-06T08:54:58.256Z,71.70
2018-10-06T08:57:26.397Z,71.50
2018-10-06T08:59:55.557Z,70.80
2018-10-06T09:02:23.706Z,70.60
2018-10-06T09:04:51.842Z,70.30
2018-10-06T09:07:20.008Z,70.00
2018-10-06T09:09:48.162Z,69.70
2018-10-06T09:12:16.566Z,69.70
2018-10-06T09:14:44.729Z,68.80
2018-10-06T09:17:12.889Z,68.70
2018-10-06T09:19:41.028Z,68.10
2018-10-06T09:22:09.196Z,67.10
2018-10-06T09:24:37.331Z,66.70
2018-10-06T09:27:05.908Z,66.20
2018-10-06T09:29:34.086Z,64.80
2018-10-06T09:32:02.354Z,63.50
2018-10-06T09:34:30.501Z,63.10
2018-10-06T09:36:58.734Z,62.90
2018-10-06T09:39:26.883Z,62.10
2018-10-06T09:41:55.072Z,61.90
2018-10-06T09:44:23.182Z,61.60
2018-10-06T09:46:51.355Z,61.40
2018-10-06T09:49:19.523Z,61.40
2018-10-06T09:51:47.663Z,61.40
2018-10-06T09:54:15.837Z,60.70
2018-10-06T09:56:44.322Z,60.40
2018-10-06T09:59:12.455Z,58.90
2018-10-06T10:01:45.827Z,58.90
2018-10-06T10:04:15.712Z,58.60
2018-10-06T10:06:43.864Z,58.40
2018-10-06T10:09:13.693Z,58.00
2018-10-06T10:11:41.836Z,57.80
2018-10-06T10:14:10.444Z,57.40
2018-10-06T10:16:38.618Z,57.10
2018-10-06T10:19:06.997Z,56.60
2018-10-06T10:21:35.370Z,56.60
2018-10-06T10:24:03.542Z,56.30
2018-10-06T10:26:32.136Z,56.00
2018-10-06T10:29:00.364Z,56.30
2018-10-06T10:31:28.449Z,56.40
2018-10-06T10:33:56.601Z,56.30
2018-10-06T10:36:24.822Z,55.90
2018-10-06T10:38:53.032Z,55.50
2018-10-06T10:41:21.174Z,54.90
2018-10-06T10:43:49.419Z,54.50
2018-10-06T10:46:17.493Z,53.70
2018-10-06T10:48:45.641Z,53.20
2018-10-06T10:51:13.762Z,52.50
2018-10-06T10:53:41.910Z,52.80
2018-10-06T10:56:10.106Z,53.80
2018-10-06T10:58:38.234Z,52.60
2018-10-06T11:01:06.418Z,52.30
2018-10-06T11:03:34.561Z,52.20
2018-10-06T11:06:02.807Z,52.60
2018-10-06T11:08:30.937Z,53.10
2018-10-06T11:10:59.121Z,51.80
2018-10-06T11:13:27.367Z,51.60
2018-10-06T11:15:55.566Z,50.40
2018-10-06T11:18:23.701Z,50.70
2018-10-06T11:20:51.858Z,50.80
2018-10-06T11:23:20.078Z,50.90
2018-10-06T11:25:48.246Z,50.50
2018-10-06T11:28:16.422Z,50.40
2018-10-06T11:30:44.674Z,50.40
2018-10-06T11:33:12.809Z,50.10
2018-10-06T11:35:41.034Z,49.70
2018-10-06T11:38:09.247Z,49.40
2018-10-06T11:40:37.318Z,49.20
2018-10-06T11:43:05.515Z,48.70
2018-10-06T11:45:33.671Z,48.50
2018-10-06T11:48:01.815Z,48.20
2018-10-06T11:50:29.973Z,47.40
2018-10-06T11:52:58.118Z,47.10
2018-10-06T11:55:26.318Z,47.70
2018-10-06T11:57:54.502Z,47.80
2018-10-06T12:00:22.819Z,47.40
2018-10-06T12:02:50.850Z,46.90
2018-10-06T12:05:19.002Z,46.50
2018-10-06T12:07:47.141Z,45.80
2018-10-06T12:10:15.283Z,45.40
2018-10-06T12:12:43.451Z,44.60
2018-10-06T12:15:11.576Z,44.20
2018-10-06T12:17:39.701Z,44.10
2018-10-06T12:20:07.845Z,43.10
2018-10-06T12:22:35.969Z,43.30
2018-10-06T12:25:04.134Z,43.10
2018-10-06T12:27:32.294Z,42.60
2018-10-06T12:30:00.522Z,42.50
2018-10-06T12:32:28.643Z,41.90
2018-10-06T12:34:56.899Z,41.50
2018-10-06T12:37:24.967Z,40.80
2018-10-06T12:39:53.200Z,40.50
2018-10-06T12:42:21.667Z,39.50
2018-10-06T12:44:49.809Z,38.30
2018-10-06T12:47:17.942Z,38.30
2018-10-06T12:49:47.190Z,37.80
2018-10-06T12:52:15.980Z,36.60
2018-10-06T12:54:44.142Z,36.90
2018-10-06T12:57:12.357Z,37.10
2018-10-06T12:59:40.518Z,38.10
2018-10-06T13:02:08.686Z,37.70
2018-10-06T13:04:37.110Z,38.10
2018-10-06T13:07:05.257Z,36.60
2018-10-06T13:09:33.418Z,35.90
2018-10-06T13:12:01.667Z,35.60
2018-10-06T13:14:29.735Z,35.90
2018-10-06T13:16:57.874Z,36.50
2018-10-06T13:19:25.997Z,36.60
2018-10-06T13:21:54.126Z,36.80
2018-10-06T13:24:22.278Z,36.70
2018-10-06T13:26:50.406Z,37.60
2018-10-06T13:29:18.545Z,37.70
2018-10-06T13:31:46.715Z,36.80
2018-10-06T13:34:14.802Z,35.80
2018-10-06T13:36:42.940Z,35.60
2018-10-06T13:39:11.356Z,35.50
2018-10-06T13:41:39.474Z,36.10
2018-10-06T13:44:07.613Z,36.90
2018-10-06T13:46:35.772Z,36.80
2018-10-06T13:49:03.886Z,35.90
2018-10-06T13:51:32.021Z,35.10
2018-10-06T13:54:00.450Z,34.20
2018-10-06T13:56:28.600Z,34.30
2018-10-06T13:58:56.727Z,33.00
2018-10-06T14:01:24.874Z,31.90
2018-10-06T14:03:53.070Z,32.20
2018-10-06T14:06:21.213Z,31.40
2018-10-06T14:08:49.357Z,31.10
2018-10-06T14:11:17.482Z,32.20
2018-10-06T14:13:45.612Z,32.30
2018-10-06T14:16:13.752Z,32.40
2018-10-06T14:18:41.889Z,32.60
2018-10-06T14:21:10.062Z,33.10
2018-10-06T14:23:38.334Z,31.60
2018-10-06T14:26:07.204Z,31.40
2018-10-06T14:28:35.489Z,31.90
2018-10-06T14:31:03.714Z,32.90
2018-10-06T14:33:31.835Z,34.10
2018-10-06T14:36:00.042Z,33.90
2018-10-06T14:38:28.215Z,33.60
2018-10-06T14:40:56.693Z,33.10
2018-10-06T14:43:24.837Z,33.70
2018-10-06T14:45:52.999Z,34.00
2018-10-06T14:48:21.136Z,35.10
2018-10-06T14:50:49.320Z,34.90
2018-10-06T14:53:17.446Z,35.70
2018-10-06T14:55:45.598Z,36.90
2018-10-06T14:58:13.763Z,37.00
2018-10-06T15:00:42.508Z,37.20
2018-10-06T15:03:10.650Z,37.10
2018-10-06T15:05:38.815Z,37.80
2018-10-06T15:08:06.950Z,38.20
2018-10-06T15:10:35.075Z,39.20
2018-10-06T15:13:03.390Z,38.80
2018-10-06T15:15:31.590Z,39.40
2018-10-06T15:17:59.769Z,39.40
2018-10-06T15:20:28.103Z,40.00
2018-10-06T15:22:56.354Z,40.30
2018-10-06T15:25:24.493Z,40.60
2018-10-06T15:27:52.643Z,40.30
2018-10-06T15:30:20.772Z,41.10
2018-10-06T15:32:48.920Z,41.70
2018-10-06T15:35:17.064Z,41.80
2018-10-06T15:37:45.187Z,42.50
2018-10-06T15:40:13.329Z,42.60
2018-10-06T15:42:41.586Z,43.20
2018-10-06T15:45:09.824Z,43.30
2018-10-06T15:47:37.975Z,44.20
2018-10-06T15:50:06.282Z,44.10
2018-10-06T15:52:34.427Z,44.60
2018-10-06T15:55:02.551Z,44.80
2018-10-06T15:57:30.695Z,45.10
2018-10-06T15:59:58.893Z,45.30
2018-10-06T16:02:27.079Z,45.70
2018-10-06T16:04:55.162Z,45.60
2018-10-06T16:07:23.310Z,45.90
2018-10-06T16:09:51.435Z,46.00
2018-10-06T16:12:19.759Z,46.30
2018-10-06T16:14:47.954Z,46.90
2018-10-06T16:17:16.104Z,46.20
2018-10-06T16:19:44.249Z,46.60
2018-10-06T16:22:12.533Z,46.90
2018-10-06T16:24:40.709Z,47.30
2018-10-06T16:27:09.033Z,48.10
2018-10-06T16:29:37.157Z,47.90
2018-10-06T16:32:05.771Z,48.60
2018-10-06T16:34:33.989Z,48.40
2018-10-06T16:37:02.149Z,48.90
2018-10-06T16:39:30.650Z,49.40
2018-10-06T16:41:58.801Z,49.80
2018-10-06T16:44:27.041Z,50.10
2018-10-06T16:46:55.375Z,50.40
2018-10-06T16:49:23.574Z,50.80
2018-10-06T16:51:51.709Z,51.10
2018-10-06T16:54:19.833Z,51.40
2018-10-06T16:56:47.969Z,51.70
2018-10-06T16:59:16.113Z,52.00
2018-10-06T17:01:44.291Z,52.30
2018-10-06T17:04:12.481Z,52.70
2018-10-06T17:06:40.641Z,53.00
2018-10-06T17:09:10.085Z,53.40
2018-10-06T17:11:38.301Z,53.80
2018-10-06T17:14:06.821Z,54.10
2018-10-06T17:16:34.958Z,54.60
2018-10-06T17:19:03.384Z,54.80
2018-10-06T17:21:31.521Z,55.10
2018-10-06T17:23:59.727Z,55.30
2018-10-06T17:26:28.018Z,55.80
2018-10-06T17:28:56.159Z,56.30
2018-10-06T17:31:24.339Z,56.60
2018-10-06T17:33:52.504Z,57.10
2018-10-06T17:36:20.691Z,57.50
2018-10-06T17:38:48.913Z,57.90
2018-10-06T17:41:16.973Z,58.20
2018-10-06T17:43:45.110Z,58.60
2018-10-06T17:46:13.241Z,58.90
2018-10-06T17:48:41.397Z,59.10
2018-10-06T17:51:09.773Z,59.50
2018-10-06T17:53:37.915Z,59.70
2018-10-06T17:56:06.463Z,60.80
2018-10-06T17:58:34.682Z,60.40
2018-10-06T18:01:02.849Z,60.60
2018-10-06T18:03:31.020Z,61.00
2018-10-06T18:05:59.198Z,61.20
2018-10-06T18:08:27.357Z,61.40
2018-10-06T18:10:55.607Z,61.70
2018-10-06T18:13:24.511Z,62.10
2018-10-06T18:15:52.680Z,62.30
2018-10-06T18:18:20.842Z,62.60
2018-10-06T18:20:49.040Z,62.70
2018-10-06T18:23:17.257Z,62.80
2018-10-06T18:25:45.411Z,63.20
2018-10-06T18:28:13.521Z,63.30
2018-10-06T18:30:42.024Z,63.70
2018-10-06T18:33:10.210Z,63.90
2018-10-06T18:35:38.379Z,64.10
2018-10-06T18:38:06.592Z,64.30
2018-10-06T18:40:34.853Z,64.70
2018-10-06T18:43:03.069Z,64.70
2018-10-06T18:45:31.298Z,65.00
2018-10-06T18:47:59.451Z,65.20
2018-10-06T18:50:27.718Z,65.50
2018-10-06T18:52:55.849Z,65.70
2018-10-06T18:55:24.015Z,66.00
2018-10-06T18:57:52.179Z,66.20
2018-10-06T19:00:20.325Z,66.60
2018-10-06T19:02:48.462Z,66.90
2018-10-06T19:05:16.590Z,66.90
2018-10-06T19:07:44.730Z,67.30
2018-10-06T19:10:12.877Z,67.70
2018-10-06T19:12:40.970Z,68.00
2018-10-06T19:15:09.390Z,68.20
2018-10-06T19:17:37.593Z,68.50
2018-10-06T19:20:06.360Z,68.80
2018-10-06T19:22:34.532Z,68.90
2018-10-06T19:25:02.718Z,69.00
2018-10-06T19:27:30.835Z,69.30
2018-10-06T19:29:58.974Z,69.50
2018-10-06T19:32:27.161Z,69.50
2018-10-06T19:34:55.386Z,69.70
2018-10-06T19:37:23.522Z,69.80
2018-10-06T19:39:52.028Z,70.00
2018-10-06T19:42:20.127Z,70.10
2018-10-06T19:44:48.270Z,70.50
2018-10-06T19:47:16.382Z,70.70
2018-10-06T19:49:44.525Z,70.90
2018-10-06T19:52:12.647Z,71.10
2018-10-06T19:54:40.920Z,71.20
2018-10-06T19:57:09.269Z,71.40
2018-10-06T19:59:37.482Z,71.50
2018-10-06T20:02:05.737Z,71.70
2018-10-06T20:04:33.877Z,72.50
2018-10-06T20:07:02.007Z,72.20
2018-10-06T20:09:30.158Z,72.50
2018-10-06T20:11:58.353Z,72.90
2018-10-06T20:14:26.521Z,73.50
2018-10-06T20:16:54.662Z,73.70
2018-10-06T20:19:22.818Z,74.00
2018-10-06T20:21:51.086Z,74.20
2018-10-06T20:24:19.643Z,74.80
2018-10-06T20:26:48.894Z,74.90
2018-10-06T20:29:17.017Z,76.00
2018-10-06T20:31:45.162Z,75.50
2018-10-06T20:34:13.291Z,75.80
2018-10-06T20:36:41.511Z,76.10
2018-10-06T20:39:10.466Z,76.50
2018-10-06T20:41:38.607Z,76.70
2018-10-06T20:44:06.767Z,76.80
2018-10-06T20:46:34.929Z,77.00
2018-10-06T20:49:03.057Z,77.10
2018-10-06T20:51:31.221Z,77.20
2018-10-06T20:53:59.357Z,77.30
2018-10-06T20:56:27.620Z,77.50
2018-10-06T20:58:55.794Z,77.50
2018-10-06T21:01:23.921Z,77.60
2018-10-06T21:03:52.054Z,77.80
2018-10-06T21:06:20.178Z,78.00
2018-10-06T21:08:48.324Z,78.20
2018-10-06T21:11:16.445Z,78.20
2018-10-06T21:13:44.599Z,78.20
2018-10-06T21:16:12.745Z,78.30
2018-10-06T21:18:40.892Z,78.60
2018-10-06T21:21:09.021Z,78.70
2018-10-06T21:23:37.177Z,78.70
2018-10-06T21:26:05.299Z,79.20
2018-10-06T21:28:33.467Z,79.30
2018-10-06T21:31:01.658Z,79.60
2018-10-06T21:33:29.791Z,79.60
2018-10-06T21:35:57.947Z,79.90
2018-10-06T21:38:26.105Z,80.40
2018-10-06T21:40:54.249Z,80.60
2018-10-06T21:43:22.380Z,81.00
2018-10-06T21:45:50.520Z,81.20
2018-10-06T21:48:18.754Z,81.30
2018-10-06T21:50:46.905Z,81.50
2018-10-06T21:53:15.022Z,81.80
2018-10-06T21:55:43.165Z,82.00
2018-10-06T21:58:11.298Z,82.40
2018-10-06T22:00:39.486Z,82.50
2018-10-06T22:03:07.626Z,83.10
2018-10-06T22:05:35.762Z,83.20
2018-10-06T22:08:03.889Z,83.40
2018-10-06T22:10:32.014Z,83.80
2018-10-06T22:13:00.193Z,84.00
2018-10-06T22:15:28.347Z,84.30
2018-10-06T22:17:56.487Z,84.50
2018-10-06T22:20:24.733Z,84.50
2018-10-06T22:22:52.907Z,84.70
2018-10-06T22:25:21.021Z,84.90
2018-10-06T22:27:49.142Z,85.00
2018-10-06T22:30:17.280Z,85.50
2018-10-06T22:32:45.410Z,84.70
2018-10-06T22:35:13.554Z,84.90
2018-10-06T22:37:41.686Z,85.20
2018-10-06T22:40:09.797Z,85.50
2018-10-06T22:42:37.963Z,85.80
2018-10-06T22:45:06.313Z,85.70
2018-10-06T22:47:34.447Z,86.10
2018-10-06T22:50:02.589Z,86.30
2018-10-06T22:52:30.722Z,86.50
2018-10-06T22:54:58.874Z,86.40
2018-10-06T22:57:26.987Z,86.70
2018-10-06T22:59:55.137Z,87.30
2018-10-06T23:02:23.290Z,87.50
2018-10-06T23:04:51.450Z,87.80
2018-10-06T23:07:19.649Z,88.00
2018-10-06T23:09:47.798Z,88.10
2018-10-06T23:12:15.926Z,87.90
2018-10-06T23:14:44.101Z,87.70
2018-10-06T23:17:12.331Z,87.50
2018-10-06T23:19:40.471Z,87.40
2018-10-06T23:22:08.601Z,87.50
2018-10-06T23:24:36.733Z,87.60
2018-10-06T23:27:05.025Z,87.70
2018-10-06T23:29:33.167Z,88.10
2018-10-06T23:32:01.337Z,88.50
2018-10-06T23:34:29.483Z,89.00
2018-10-06T23:36:57.666Z,89.00
2018-10-06T23:39:25.821Z,89.00
2018-10-06T23:41:53.958Z,89.40
2018-10-06T23:44:22.121Z,90.00
2018-10-06T23:46:50.273Z,89.80
2018-10-06T23:49:18.397Z,89.60
2018-10-06T23:51:46.533Z,89.90
2018-10-06T23:54:14.712Z,90.00
2018-10-06T23:56:42.829Z,90.00
2018-10-06T23:59:10.968Z,89.70
